sensor_id;sensor_type;location;lat;lon;timestamp;P1;durP1;ratioP1;P2;durP2;ratioP2
19554;SDS011;9924;50.828;6.440;2022-12-07T00:02:42;58.13;;;28.83;;
19554;SDS011;9924;50.828;6.440;2022-12-07T00:05:26;53.70;;;28.47;;
19554;SDS011;9924;50.828;6.440;2022-12-07T00:08:12;54.63;;;29.27;;
19554;SDS011;9924;50.828;6.440;2022-12-07T00:11:06;56.27;;;29.40;;
19554;SDS011;9924;50.828;6.440;2022-12-07T00:13:57;53.83;;;29.27;;
19554;SDS011;9924;50.828;6.440;2022-12-07T00:16:43;55.03;;;28.83;;
19554;SDS011;9924;50.828;6.440;2022-12-07T00:19:29;51.83;;;27.20;;
19554;SDS011;9924;50.828;6.440;2022-12-07T00:22:14;57.80;;;28.97;;
19554;SDS011;9924;50.828;6.440;2022-12-07T00:24:58;51.50;;;27.13;;
19554;SDS011;9924;50.828;6.440;2022-12-07T00:27:43;51.50;;;27.87;;
19554;SDS011;9924;50.828;6.440;2022-12-07T00:30:28;55.37;;;30.13;;
19554;SDS011;9924;50.828;6.440;2022-12-07T00:33:13;51.60;;;28.60;;
19554;SDS011;9924;50.828;6.440;2022-12-07T00:35:58;54.20;;;28.43;;
19554;SDS011;9924;50.828;6.440;2022-12-07T00:38:43;51.97;;;28.97;;
19554;SDS011;9924;50.828;6.440;2022-12-07T00:41:28;59.50;;;29.67;;
19554;SDS011;9924;50.828;6.440;2022-12-07T00:44:13;57.93;;;31.13;;
19554;SDS011;9924;50.828;6.440;2022-12-07T00:46:58;57.90;;;29.90;;
19554;SDS011;9924;50.828;6.440;2022-12-07T00:49:45;62.13;;;32.47;;
19554;SDS011;9924;50.828;6.440;2022-12-07T00:52:30;57.50;;;30.27;;
19554;SDS011;9924;50.828;6.440;2022-12-07T00:55:14;53.70;;;28.57;;
19554;SDS011;9924;50.828;6.440;2022-12-07T00:58:00;53.40;;;27.75;;
19554;SDS011;9924;50.828;6.440;2022-12-07T01:00:44;51.60;;;28.30;;
19554;SDS011;9924;50.828;6.440;2022-12-07T01:03:29;50.33;;;26.47;;
19554;SDS011;9924;50.828;6.440;2022-12-07T01:06:16;55.58;;;28.00;;
19554;SDS011;9924;50.828;6.440;2022-12-07T01:09:07;53.13;;;26.93;;
19554;SDS011;9924;50.828;6.440;2022-12-07T01:11:52;52.60;;;27.07;;
19554;SDS011;9924;50.828;6.440;2022-12-07T01:14:42;48.03;;;26.63;;
19554;SDS011;9924;50.828;6.440;2022-12-07T01:17:28;50.23;;;25.43;;
19554;SDS011;9924;50.828;6.440;2022-12-07T01:20:13;46.87;;;26.53;;
19554;SDS011;9924;50.828;6.440;2022-12-07T01:22:59;51.17;;;26.57;;
19554;SDS011;9924;50.828;6.440;2022-12-07T01:25:44;54.80;;;27.57;;
19554;SDS011;9924;50.828;6.440;2022-12-07T01:28:29;54.85;;;27.42;;
19554;SDS011;9924;50.828;6.440;2022-12-07T01:31:14;52.25;;;26.38;;
19554;SDS011;9924;50.828;6.440;2022-12-07T01:34:00;49.87;;;26.67;;
19554;SDS011;9924;50.828;6.440;2022-12-07T01:36:45;47.00;;;25.27;;
19554;SDS011;9924;50.828;6.440;2022-12-07T01:39:30;48.83;;;26.00;;
19554;SDS011;9924;50.828;6.440;2022-12-07T01:42:14;49.40;;;25.33;;
19554;SDS011;9924;50.828;6.440;2022-12-07T01:48:02;50.07;;;26.67;;
19554;SDS011;9924;50.828;6.440;2022-12-07T01:50:48;44.73;;;23.80;;
19554;SDS011;9924;50.828;6.440;2022-12-07T01:53:36;55.10;;;26.93;;
19554;SDS011;9924;50.828;6.440;2022-12-07T01:56:24;46.83;;;25.15;;
19554;SDS011;9924;50.828;6.440;2022-12-07T01:59:15;45.90;;;24.77;;
19554;SDS011;9924;50.828;6.440;2022-12-07T02:02:02;45.80;;;25.13;;
19554;SDS011;9924;50.828;6.440;2022-12-07T02:04:52;49.33;;;26.33;;
19554;SDS011;9924;50.828;6.440;2022-12-07T02:07:40;48.73;;;26.63;;
19554;SDS011;9924;50.828;6.440;2022-12-07T02:10:26;45.77;;;26.93;;
19554;SDS011;9924;50.828;6.440;2022-12-07T02:13:13;51.10;;;26.97;;
19554;SDS011;9924;50.828;6.440;2022-12-07T02:16:27;46.87;;;26.37;;
19554;SDS011;9924;50.828;6.440;2022-12-07T02:20:14;55.10;;;27.00;;
19554;SDS011;9924;50.828;6.440;2022-12-07T02:26:21;45.97;;;25.83;;
19554;SDS011;9924;50.828;6.440;2022-12-07T02:38:17;58.80;;;28.30;;
19554;SDS011;9924;50.828;6.440;2022-12-07T02:41:12;55.87;;;29.20;;
19554;SDS011;9924;50.828;6.440;2022-12-07T02:44:06;55.33;;;28.67;;
19554;SDS011;9924;50.828;6.440;2022-12-07T02:46:58;63.20;;;30.57;;
19554;SDS011;9924;50.828;6.440;2022-12-07T02:49:49;66.13;;;31.07;;
19554;SDS011;9924;50.828;6.440;2022-12-07T02:52:34;59.93;;;30.80;;
19554;SDS011;9924;50.828;6.440;2022-12-07T02:55:19;60.77;;;29.30;;
19554;SDS011;9924;50.828;6.440;2022-12-07T02:58:14;66.97;;;30.93;;
19554;SDS011;9924;50.828;6.440;2022-12-07T03:01:23;66.50;;;31.40;;
19554;SDS011;9924;50.828;6.440;2022-12-07T03:07:42;70.03;;;32.57;;
19554;SDS011;9924;50.828;6.440;2022-12-07T03:10:59;63.90;;;30.50;;
19554;SDS011;9924;50.828;6.440;2022-12-07T03:17:07;74.47;;;31.90;;
19554;SDS011;9924;50.828;6.440;2022-12-07T03:19:54;62.73;;;30.60;;
19554;SDS011;9924;50.828;6.440;2022-12-07T03:22:42;66.17;;;31.20;;
19554;SDS011;9924;50.828;6.440;2022-12-07T03:25:30;65.43;;;29.97;;
19554;SDS011;9924;50.828;6.440;2022-12-07T03:28:16;61.83;;;29.57;;
19554;SDS011;9924;50.828;6.440;2022-12-07T03:31:05;54.73;;;26.37;;
19554;SDS011;9924;50.828;6.440;2022-12-07T03:34:00;57.60;;;26.33;;
19554;SDS011;9924;50.828;6.440;2022-12-07T03:39:57;51.70;;;24.03;;
19554;SDS011;9924;50.828;6.440;2022-12-07T03:43:03;56.80;;;27.20;;
19554;SDS011;9924;50.828;6.440;2022-12-07T03:45:53;58.72;;;26.80;;
19554;SDS011;9924;50.828;6.440;2022-12-07T03:48:46;54.55;;;25.83;;
19554;SDS011;9924;50.828;6.440;2022-12-07T03:51:45;49.57;;;24.50;;
19554;SDS011;9924;50.828;6.440;2022-12-07T03:57:45;43.83;;;22.43;;
19554;SDS011;9924;50.828;6.440;2022-12-07T04:00:32;47.83;;;22.33;;
19554;SDS011;9924;50.828;6.440;2022-12-07T04:03:17;51.57;;;24.20;;
19554;SDS011;9924;50.828;6.440;2022-12-07T04:06:02;46.90;;;23.73;;
19554;SDS011;9924;50.828;6.440;2022-12-07T04:08:49;47.75;;;22.88;;
19554;SDS011;9924;50.828;6.440;2022-12-07T04:11:34;48.60;;;22.97;;
19554;SDS011;9924;50.828;6.440;2022-12-07T04:14:19;51.03;;;25.97;;
19554;SDS011;9924;50.828;6.440;2022-12-07T04:17:03;44.93;;;25.03;;
19554;SDS011;9924;50.828;6.440;2022-12-07T04:19:48;49.37;;;25.40;;
19554;SDS011;9924;50.828;6.440;2022-12-07T04:22:36;54.47;;;25.57;;
19554;SDS011;9924;50.828;6.440;2022-12-07T04:25:21;49.60;;;24.27;;
19554;SDS011;9924;50.828;6.440;2022-12-07T04:28:06;47.90;;;22.63;;
19554;SDS011;9924;50.828;6.440;2022-12-07T04:30:51;47.07;;;23.07;;
19554;SDS011;9924;50.828;6.440;2022-12-07T04:33:35;51.17;;;25.97;;
19554;SDS011;9924;50.828;6.440;2022-12-07T04:36:20;54.10;;;27.77;;
19554;SDS011;9924;50.828;6.440;2022-12-07T04:39:05;61.73;;;27.80;;
19554;SDS011;9924;50.828;6.440;2022-12-07T04:41:51;56.03;;;27.83;;
19554;SDS011;9924;50.828;6.440;2022-12-07T04:44:36;52.50;;;27.93;;
19554;SDS011;9924;50.828;6.440;2022-12-07T04:47:20;55.17;;;26.83;;
19554;SDS011;9924;50.828;6.440;2022-12-07T04:50:05;57.03;;;28.27;;
19554;SDS011;9924;50.828;6.440;2022-12-07T04:52:50;56.43;;;26.23;;
19554;SDS011;9924;50.828;6.440;2022-12-07T04:55:35;54.20;;;27.37;;
19554;SDS011;9924;50.828;6.440;2022-12-07T04:58:20;52.23;;;26.17;;
19554;SDS011;9924;50.828;6.440;2022-12-07T05:01:04;60.37;;;27.20;;
19554;SDS011;9924;50.828;6.440;2022-12-07T05:03:52;59.27;;;27.00;;
19554;SDS011;9924;50.828;6.440;2022-12-07T05:06:37;64.73;;;27.77;;
19554;SDS011;9924;50.828;6.440;2022-12-07T05:09:22;53.80;;;24.63;;
19554;SDS011;9924;50.828;6.440;2022-12-07T05:12:08;52.43;;;25.80;;
19554;SDS011;9924;50.828;6.440;2022-12-07T05:14:53;52.13;;;26.30;;
19554;SDS011;9924;50.828;6.440;2022-12-07T05:17:38;54.63;;;26.33;;
19554;SDS011;9924;50.828;6.440;2022-12-07T05:20:23;57.40;;;25.73;;
19554;SDS011;9924;50.828;6.440;2022-12-07T05:23:07;58.40;;;27.47;;
19554;SDS011;9924;50.828;6.440;2022-12-07T05:25:53;57.63;;;25.40;;
19554;SDS011;9924;50.828;6.440;2022-12-07T05:28:37;54.93;;;24.93;;
19554;SDS011;9924;50.828;6.440;2022-12-07T05:31:22;50.87;;;24.03;;
19554;SDS011;9924;50.828;6.440;2022-12-07T05:34:08;52.20;;;24.70;;
19554;SDS011;9924;50.828;6.440;2022-12-07T05:36:52;52.77;;;25.97;;
19554;SDS011;9924;50.828;6.440;2022-12-07T05:39:37;61.33;;;26.70;;
19554;SDS011;9924;50.828;6.440;2022-12-07T05:42:24;56.67;;;27.40;;
19554;SDS011;9924;50.828;6.440;2022-12-07T05:45:09;55.93;;;26.43;;
19554;SDS011;9924;50.828;6.440;2022-12-07T05:47:54;57.60;;;26.40;;
19554;SDS011;9924;50.828;6.440;2022-12-07T05:50:38;56.73;;;25.40;;
19554;SDS011;9924;50.828;6.440;2022-12-07T05:53:23;63.97;;;25.40;;
19554;SDS011;9924;50.828;6.440;2022-12-07T05:56:11;55.33;;;25.77;;
19554;SDS011;9924;50.828;6.440;2022-12-07T05:58:56;57.83;;;26.03;;
19554;SDS011;9924;50.828;6.440;2022-12-07T06:02:03;58.57;;;25.53;;
19554;SDS011;9924;50.828;6.440;2022-12-07T06:04:52;54.73;;;25.80;;
19554;SDS011;9924;50.828;6.440;2022-12-07T06:07:37;55.37;;;24.93;;
19554;SDS011;9924;50.828;6.440;2022-12-07T06:10:21;52.20;;;25.23;;
19554;SDS011;9924;50.828;6.440;2022-12-07T06:13:06;54.40;;;23.00;;
19554;SDS011;9924;50.828;6.440;2022-12-07T06:15:52;52.40;;;24.40;;
19554;SDS011;9924;50.828;6.440;2022-12-07T06:18:36;47.33;;;21.13;;
19554;SDS011;9924;50.828;6.440;2022-12-07T06:21:24;49.53;;;20.90;;
19554;SDS011;9924;50.828;6.440;2022-12-07T06:24:13;53.57;;;22.13;;
19554;SDS011;9924;50.828;6.440;2022-12-07T06:26:58;47.10;;;20.87;;
19554;SDS011;9924;50.828;6.440;2022-12-07T06:29:43;42.70;;;20.53;;
19554;SDS011;9924;50.828;6.440;2022-12-07T06:32:28;45.03;;;20.30;;
19554;SDS011;9924;50.828;6.440;2022-12-07T06:35:12;42.57;;;18.37;;
19554;SDS011;9924;50.828;6.440;2022-12-07T06:37:57;39.67;;;18.53;;
19554;SDS011;9924;50.828;6.440;2022-12-07T06:40:41;47.67;;;22.33;;
19554;SDS011;9924;50.828;6.440;2022-12-07T06:43:26;52.00;;;23.10;;
19554;SDS011;9924;50.828;6.440;2022-12-07T06:46:10;51.13;;;23.10;;
19554;SDS011;9924;50.828;6.440;2022-12-07T06:48:55;43.93;;;20.90;;
19554;SDS011;9924;50.828;6.440;2022-12-07T06:51:41;48.70;;;21.33;;
19554;SDS011;9924;50.828;6.440;2022-12-07T06:54:26;41.17;;;20.43;;
19554;SDS011;9924;50.828;6.440;2022-12-07T06:57:13;54.07;;;23.47;;
19554;SDS011;9924;50.828;6.440;2022-12-07T06:59:58;40.27;;;20.57;;
19554;SDS011;9924;50.828;6.440;2022-12-07T07:02:42;45.27;;;22.03;;
19554;SDS011;9924;50.828;6.440;2022-12-07T07:05:26;45.47;;;21.13;;
19554;SDS011;9924;50.828;6.440;2022-12-07T07:08:11;43.58;;;21.02;;
19554;SDS011;9924;50.828;6.440;2022-12-07T07:10:56;47.97;;;21.43;;
19554;SDS011;9924;50.828;6.440;2022-12-07T07:13:41;43.77;;;22.13;;
19554;SDS011;9924;50.828;6.440;2022-12-07T07:16:25;46.87;;;21.80;;
19554;SDS011;9924;50.828;6.440;2022-12-07T07:19:10;47.00;;;21.07;;
19554;SDS011;9924;50.828;6.440;2022-12-07T07:21:54;49.23;;;21.93;;
19554;SDS011;9924;50.828;6.440;2022-12-07T07:24:39;40.87;;;21.27;;
19554;SDS011;9924;50.828;6.440;2022-12-07T07:27:24;45.27;;;21.30;;
19554;SDS011;9924;50.828;6.440;2022-12-07T07:30:12;45.90;;;21.83;;
19554;SDS011;9924;50.828;6.440;2022-12-07T07:32:57;40.60;;;21.97;;
19554;SDS011;9924;50.828;6.440;2022-12-07T07:35:43;47.07;;;22.77;;
19554;SDS011;9924;50.828;6.440;2022-12-07T07:38:27;47.47;;;22.87;;
19554;SDS011;9924;50.828;6.440;2022-12-07T07:41:11;49.30;;;22.57;;
19554;SDS011;9924;50.828;6.440;2022-12-07T07:43:56;58.87;;;24.33;;
19554;SDS011;9924;50.828;6.440;2022-12-07T07:46:41;52.03;;;23.63;;
19554;SDS011;9924;50.828;6.440;2022-12-07T07:49:25;50.07;;;23.43;;
19554;SDS011;9924;50.828;6.440;2022-12-07T07:52:10;53.10;;;24.60;;
19554;SDS011;9924;50.828;6.440;2022-12-07T07:54:55;51.93;;;23.87;;
19554;SDS011;9924;50.828;6.440;2022-12-07T07:57:40;50.43;;;22.40;;
19554;SDS011;9924;50.828;6.440;2022-12-07T08:00:25;52.10;;;22.17;;
19554;SDS011;9924;50.828;6.440;2022-12-07T08:03:09;48.73;;;22.47;;
19554;SDS011;9924;50.828;6.440;2022-12-07T08:05:54;52.83;;;23.80;;
19554;SDS011;9924;50.828;6.440;2022-12-07T08:08:39;49.43;;;23.50;;
19554;SDS011;9924;50.828;6.440;2022-12-07T08:11:24;47.30;;;22.20;;
19554;SDS011;9924;50.828;6.440;2022-12-07T08:14:09;42.97;;;23.60;;
19554;SDS011;9924;50.828;6.440;2022-12-07T08:16:54;52.33;;;23.00;;
19554;SDS011;9924;50.828;6.440;2022-12-07T08:19:39;57.67;;;24.83;;
19554;SDS011;9924;50.828;6.440;2022-12-07T08:22:24;45.97;;;21.77;;
19554;SDS011;9924;50.828;6.440;2022-12-07T08:25:08;47.67;;;23.90;;
19554;SDS011;9924;50.828;6.440;2022-12-07T08:27:53;46.03;;;23.13;;
19554;SDS011;9924;50.828;6.440;2022-12-07T08:30:38;47.97;;;22.83;;
19554;SDS011;9924;50.828;6.440;2022-12-07T08:33:22;50.17;;;23.13;;
19554;SDS011;9924;50.828;6.440;2022-12-07T08:36:08;48.33;;;22.50;;
19554;SDS011;9924;50.828;6.440;2022-12-07T08:38:55;47.17;;;23.20;;
19554;SDS011;9924;50.828;6.440;2022-12-07T08:41:40;49.13;;;22.97;;
19554;SDS011;9924;50.828;6.440;2022-12-07T08:44:25;44.33;;;21.70;;
19554;SDS011;9924;50.828;6.440;2022-12-07T08:47:09;51.80;;;22.27;;
19554;SDS011;9924;50.828;6.440;2022-12-07T08:49:57;40.57;;;20.60;;
19554;SDS011;9924;50.828;6.440;2022-12-07T08:52:53;42.80;;;22.07;;
19554;SDS011;9924;50.828;6.440;2022-12-07T08:55:43;42.13;;;20.60;;
19554;SDS011;9924;50.828;6.440;2022-12-07T08:58:29;43.87;;;21.57;;
19554;SDS011;9924;50.828;6.440;2022-12-07T09:01:15;46.63;;;20.97;;
19554;SDS011;9924;50.828;6.440;2022-12-07T09:03:59;46.73;;;21.63;;
19554;SDS011;9924;50.828;6.440;2022-12-07T09:06:44;39.87;;;20.50;;
19554;SDS011;9924;50.828;6.440;2022-12-07T09:09:29;46.80;;;20.42;;
19554;SDS011;9924;50.828;6.440;2022-12-07T09:12:14;39.70;;;19.73;;
19554;SDS011;9924;50.828;6.440;2022-12-07T09:15:01;39.33;;;20.40;;
19554;SDS011;9924;50.828;6.440;2022-12-07T09:17:47;33.85;;;17.17;;
19554;SDS011;9924;50.828;6.440;2022-12-07T09:20:31;30.30;;;15.10;;
19554;SDS011;9924;50.828;6.440;2022-12-07T09:23:16;30.73;;;15.88;;
19554;SDS011;9924;50.828;6.440;2022-12-07T09:26:01;23.55;;;12.63;;
19554;SDS011;9924;50.828;6.440;2022-12-07T09:28:48;22.60;;;13.02;;
19554;SDS011;9924;50.828;6.440;2022-12-07T09:31:35;19.98;;;11.32;;
19554;SDS011;9924;50.828;6.440;2022-12-07T09:34:20;19.08;;;11.10;;
19554;SDS011;9924;50.828;6.440;2022-12-07T09:37:05;20.60;;;11.35;;
19554;SDS011;9924;50.828;6.440;2022-12-07T09:39:50;19.70;;;11.18;;
19554;SDS011;9924;50.828;6.440;2022-12-07T09:42:35;20.30;;;10.30;;
19554;SDS011;9924;50.828;6.440;2022-12-07T09:45:24;17.85;;;10.10;;
19554;SDS011;9924;50.828;6.440;2022-12-07T09:48:18;14.90;;;9.27;;
19554;SDS011;9924;50.828;6.440;2022-12-07T09:51:24;15.00;;;8.20;;
19554;SDS011;9924;50.828;6.440;2022-12-07T09:54:11;14.20;;;7.68;;
19554;SDS011;9924;50.828;6.440;2022-12-07T09:56:58;20.25;;;10.48;;
19554;SDS011;9924;50.828;6.440;2022-12-07T09:59:43;14.98;;;8.65;;
19554;SDS011;9924;50.828;6.440;2022-12-07T10:05:24;13.07;;;7.32;;
19554;SDS011;9924;50.828;6.440;2022-12-07T10:08:21;15.52;;;8.95;;
19554;SDS011;9924;50.828;6.440;2022-12-07T10:11:05;17.58;;;8.63;;
19554;SDS011;9924;50.828;6.440;2022-12-07T10:13:54;17.85;;;9.65;;
19554;SDS011;9924;50.828;6.440;2022-12-07T10:16:53;21.48;;;9.65;;
19554;SDS011;9924;50.828;6.440;2022-12-07T10:19:38;17.63;;;9.55;;
19554;SDS011;9924;50.828;6.440;2022-12-07T10:22:23;21.45;;;9.90;;
19554;SDS011;9924;50.828;6.440;2022-12-07T10:25:08;22.30;;;9.65;;
19554;SDS011;9924;50.828;6.440;2022-12-07T10:28:10;19.55;;;9.65;;
19554;SDS011;9924;50.828;6.440;2022-12-07T10:30:59;20.20;;;10.20;;
19554;SDS011;9924;50.828;6.440;2022-12-07T10:36:35;21.27;;;11.25;;
19554;SDS011;9924;50.828;6.440;2022-12-07T10:39:22;22.27;;;12.43;;
19554;SDS011;9924;50.828;6.440;2022-12-07T10:42:09;23.58;;;11.55;;
19554;SDS011;9924;50.828;6.440;2022-12-07T10:45:13;23.98;;;11.52;;
19554;SDS011;9924;50.828;6.440;2022-12-07T10:51:59;25.63;;;12.70;;
19554;SDS011;9924;50.828;6.440;2022-12-07T10:54:51;27.83;;;14.07;;
19554;SDS011;9924;50.828;6.440;2022-12-07T11:00:51;19.80;;;9.52;;
19554;SDS011;9924;50.828;6.440;2022-12-07T11:04:03;18.60;;;9.57;;
19554;SDS011;9924;50.828;6.440;2022-12-07T11:10:19;16.10;;;8.82;;
19554;SDS011;9924;50.828;6.440;2022-12-07T11:13:25;20.60;;;11.48;;
19554;SDS011;9924;50.828;6.440;2022-12-07T11:16:19;25.42;;;12.65;;
19554;SDS011;9924;50.828;6.440;2022-12-07T11:19:39;30.55;;;14.77;;
19554;SDS011;9924;50.828;6.440;2022-12-07T11:26:02;26.13;;;13.82;;
19554;SDS011;9924;50.828;6.440;2022-12-07T11:29:22;27.42;;;13.80;;
19554;SDS011;9924;50.828;6.440;2022-12-07T11:35:31;22.70;;;12.65;;
19554;SDS011;9924;50.828;6.440;2022-12-07T11:38:47;23.73;;;12.10;;
19554;SDS011;9924;50.828;6.440;2022-12-07T11:41:40;23.85;;;11.95;;
19554;SDS011;9924;50.828;6.440;2022-12-07T11:44:30;19.02;;;11.02;;
19554;SDS011;9924;50.828;6.440;2022-12-07T11:47:36;19.13;;;10.55;;
19554;SDS011;9924;50.828;6.440;2022-12-07T11:50:45;22.25;;;10.20;;
19554;SDS011;9924;50.828;6.440;2022-12-07T11:53:44;28.90;;;9.10;;
19554;SDS011;9924;50.828;6.440;2022-12-07T11:56:33;17.33;;;8.98;;
19554;SDS011;9924;50.828;6.440;2022-12-07T11:59:23;15.93;;;9.15;;
19554;SDS011;9924;50.828;6.440;2022-12-07T12:02:16;14.77;;;8.80;;
19554;SDS011;9924;50.828;6.440;2022-12-07T12:05:26;18.88;;;9.18;;
19554;SDS011;9924;50.828;6.440;2022-12-07T12:14:32;25.77;;;12.00;;
19554;SDS011;9924;50.828;6.440;2022-12-07T12:21:08;19.63;;;10.45;;
19554;SDS011;9924;50.828;6.440;2022-12-07T12:24:08;18.63;;;9.50;;
19554;SDS011;9924;50.828;6.440;2022-12-07T12:27:08;14.77;;;8.82;;
19554;SDS011;9924;50.828;6.440;2022-12-07T12:30:00;20.23;;;10.18;;
19554;SDS011;9924;50.828;6.440;2022-12-07T12:32:47;18.00;;;10.38;;
19554;SDS011;9924;50.828;6.440;2022-12-07T12:35:33;22.45;;;10.43;;
19554;SDS011;9924;50.828;6.440;2022-12-07T12:38:24;23.40;;;10.52;;
19554;SDS011;9924;50.828;6.440;2022-12-07T12:41:50;19.38;;;10.27;;
19554;SDS011;9924;50.828;6.440;2022-12-07T12:45:02;20.55;;;10.65;;
19554;SDS011;9924;50.828;6.440;2022-12-07T12:48:01;20.13;;;10.38;;
19554;SDS011;9924;50.828;6.440;2022-12-07T12:54:25;21.45;;;11.75;;
19554;SDS011;9924;50.828;6.440;2022-12-07T13:00:15;16.67;;;10.18;;
19554;SDS011;9924;50.828;6.440;2022-12-07T13:03:04;18.83;;;10.70;;
19554;SDS011;9924;50.828;6.440;2022-12-07T13:05:48;16.85;;;10.73;;
19554;SDS011;9924;50.828;6.440;2022-12-07T13:09:17;20.30;;;10.23;;
19554;SDS011;9924;50.828;6.440;2022-12-07T13:12:18;16.00;;;9.73;;
19554;SDS011;9924;50.828;6.440;2022-12-07T13:15:03;15.60;;;8.82;;
19554;SDS011;9924;50.828;6.440;2022-12-07T13:24:12;16.20;;;8.88;;
19554;SDS011;9924;50.828;6.440;2022-12-07T13:26:57;15.88;;;8.57;;
19554;SDS011;9924;50.828;6.440;2022-12-07T13:29:43;14.85;;;9.13;;
19554;SDS011;9924;50.828;6.440;2022-12-07T13:32:28;21.95;;;9.40;;
19554;SDS011;9924;50.828;6.440;2022-12-07T13:35:33;15.00;;;7.88;;
19554;SDS011;9924;50.828;6.440;2022-12-07T13:38:32;13.20;;;7.80;;
19554;SDS011;9924;50.828;6.440;2022-12-07T13:41:20;20.25;;;9.02;;
19554;SDS011;9924;50.828;6.440;2022-12-07T13:44:09;13.80;;;8.55;;
19554;SDS011;9924;50.828;6.440;2022-12-07T13:47:06;15.68;;;8.15;;
19554;SDS011;9924;50.828;6.440;2022-12-07T13:49:56;13.55;;;8.48;;
19554;SDS011;9924;50.828;6.440;2022-12-07T13:52:47;14.20;;;8.23;;
19554;SDS011;9924;50.828;6.440;2022-12-07T13:55:33;18.13;;;9.48;;
19554;SDS011;9924;50.828;6.440;2022-12-07T13:58:18;14.85;;;9.50;;
19554;SDS011;9924;50.828;6.440;2022-12-07T14:01:05;20.92;;;9.10;;
19554;SDS011;9924;50.828;6.440;2022-12-07T14:03:50;17.40;;;9.40;;
19554;SDS011;9924;50.828;6.440;2022-12-07T14:06:35;16.58;;;8.90;;
19554;SDS011;9924;50.828;6.440;2022-12-07T14:09:21;19.67;;;9.10;;
19554;SDS011;9924;50.828;6.440;2022-12-07T14:12:07;16.63;;;9.00;;
19554;SDS011;9924;50.828;6.440;2022-12-07T14:14:52;18.85;;;9.70;;
19554;SDS011;9924;50.828;6.440;2022-12-07T14:17:38;18.15;;;10.55;;
19554;SDS011;9924;50.828;6.440;2022-12-07T14:20:36;15.45;;;9.98;;
19554;SDS011;9924;50.828;6.440;2022-12-07T14:23:24;17.13;;;9.20;;
19554;SDS011;9924;50.828;6.440;2022-12-07T14:32:20;15.60;;;9.15;;
19554;SDS011;9924;50.828;6.440;2022-12-07T14:35:13;24.02;;;9.88;;
19554;SDS011;9924;50.828;6.440;2022-12-07T14:37:59;17.80;;;9.50;;
19554;SDS011;9924;50.828;6.440;2022-12-07T14:40:43;16.80;;;10.52;;
19554;SDS011;9924;50.828;6.440;2022-12-07T14:43:28;17.73;;;10.10;;
19554;SDS011;9924;50.828;6.440;2022-12-07T14:46:12;17.35;;;10.18;;
19554;SDS011;9924;50.828;6.440;2022-12-07T14:49:01;18.88;;;10.07;;
19554;SDS011;9924;50.828;6.440;2022-12-07T14:51:46;22.63;;;10.50;;
19554;SDS011;9924;50.828;6.440;2022-12-07T14:54:31;24.27;;;10.88;;
19554;SDS011;9924;50.828;6.440;2022-12-07T14:57:16;18.02;;;10.60;;
19554;SDS011;9924;50.828;6.440;2022-12-07T15:00:01;20.13;;;11.77;;
19554;SDS011;9924;50.828;6.440;2022-12-07T15:02:46;27.88;;;16.17;;
19554;SDS011;9924;50.828;6.440;2022-12-07T15:05:32;24.63;;;11.90;;
19554;SDS011;9924;50.828;6.440;2022-12-07T15:08:20;20.17;;;12.52;;
19554;SDS011;9924;50.828;6.440;2022-12-07T15:11:05;24.25;;;13.68;;
19554;SDS011;9924;50.828;6.440;2022-12-07T15:13:49;16.85;;;11.70;;
19554;SDS011;9924;50.828;6.440;2022-12-07T15:16:52;31.40;;;20.33;;
19554;SDS011;9924;50.828;6.440;2022-12-07T15:19:37;20.80;;;14.93;;
19554;SDS011;9924;50.828;6.440;2022-12-07T15:22:21;25.17;;;13.70;;
19554;SDS011;9924;50.828;6.440;2022-12-07T15:25:09;18.20;;;12.65;;
19554;SDS011;9924;50.828;6.440;2022-12-07T15:27:57;21.42;;;12.27;;
19554;SDS011;9924;50.828;6.440;2022-12-07T15:30:42;26.52;;;13.15;;
19554;SDS011;9924;50.828;6.440;2022-12-07T15:33:28;22.48;;;13.48;;
19554;SDS011;9924;50.828;6.440;2022-12-07T15:36:22;25.48;;;13.40;;
19554;SDS011;9924;50.828;6.440;2022-12-07T15:39:08;24.17;;;13.80;;
19554;SDS011;9924;50.828;6.440;2022-12-07T15:41:52;20.50;;;12.63;;
19554;SDS011;9924;50.828;6.440;2022-12-07T15:44:37;19.45;;;12.73;;
19554;SDS011;9924;50.828;6.440;2022-12-07T15:47:41;24.33;;;14.70;;
19554;SDS011;9924;50.828;6.440;2022-12-07T15:50:28;23.65;;;12.95;;
19554;SDS011;9924;50.828;6.440;2022-12-07T15:53:13;18.85;;;13.10;;
19554;SDS011;9924;50.828;6.440;2022-12-07T15:55:57;22.00;;;12.32;;
19554;SDS011;9924;50.828;6.440;2022-12-07T15:58:42;21.08;;;11.93;;
19554;SDS011;9924;50.828;6.440;2022-12-07T16:01:27;25.77;;;12.57;;
19554;SDS011;9924;50.828;6.440;2022-12-07T16:04:12;18.27;;;11.25;;
19554;SDS011;9924;50.828;6.440;2022-12-07T16:06:57;19.67;;;12.23;;
19554;SDS011;9924;50.828;6.440;2022-12-07T16:09:42;22.90;;;13.00;;
19554;SDS011;9924;50.828;6.440;2022-12-07T16:12:26;19.67;;;13.03;;
19554;SDS011;9924;50.828;6.440;2022-12-07T16:15:11;27.00;;;14.82;;
19554;SDS011;9924;50.828;6.440;2022-12-07T16:17:56;25.52;;;14.70;;
19554;SDS011;9924;50.828;6.440;2022-12-07T16:20:40;28.15;;;13.65;;
19554;SDS011;9924;50.828;6.440;2022-12-07T16:23:24;20.90;;;11.80;;
19554;SDS011;9924;50.828;6.440;2022-12-07T16:26:17;21.35;;;13.75;;
19554;SDS011;9924;50.828;6.440;2022-12-07T16:29:05;22.65;;;14.00;;
19554;SDS011;9924;50.828;6.440;2022-12-07T16:31:57;22.63;;;14.35;;
19554;SDS011;9924;50.828;6.440;2022-12-07T16:34:45;28.33;;;14.52;;
19554;SDS011;9924;50.828;6.440;2022-12-07T16:37:30;24.05;;;14.32;;
19554;SDS011;9924;50.828;6.440;2022-12-07T16:40:15;21.88;;;14.32;;
19554;SDS011;9924;50.828;6.440;2022-12-07T16:42:59;28.38;;;13.27;;
19554;SDS011;9924;50.828;6.440;2022-12-07T16:45:45;18.50;;;12.73;;
19554;SDS011;9924;50.828;6.440;2022-12-07T16:48:31;22.20;;;12.32;;
19554;SDS011;9924;50.828;6.440;2022-12-07T16:51:18;19.48;;;13.07;;
19554;SDS011;9924;50.828;6.440;2022-12-07T16:54:02;16.77;;;10.98;;
19554;SDS011;9924;50.828;6.440;2022-12-07T16:56:47;19.98;;;11.98;;
19554;SDS011;9924;50.828;6.440;2022-12-07T16:59:32;21.52;;;12.10;;
19554;SDS011;9924;50.828;6.440;2022-12-07T17:02:17;19.80;;;11.77;;
19554;SDS011;9924;50.828;6.440;2022-12-07T17:05:02;20.25;;;11.18;;
19554;SDS011;9924;50.828;6.440;2022-12-07T17:07:47;24.40;;;13.50;;
19554;SDS011;9924;50.828;6.440;2022-12-07T17:10:32;26.63;;;13.05;;
19554;SDS011;9924;50.828;6.440;2022-12-07T17:13:19;20.92;;;11.25;;
19554;SDS011;9924;50.828;6.440;2022-12-07T17:16:22;23.92;;;10.55;;
19554;SDS011;9924;50.828;6.440;2022-12-07T17:19:07;19.73;;;10.45;;
19554;SDS011;9924;50.828;6.440;2022-12-07T17:21:54;20.13;;;12.07;;
19554;SDS011;9924;50.828;6.440;2022-12-07T17:24:39;17.70;;;11.25;;
19554;SDS011;9924;50.828;6.440;2022-12-07T17:27:26;19.90;;;11.85;;
19554;SDS011;9924;50.828;6.440;2022-12-07T17:30:11;17.90;;;10.85;;
19554;SDS011;9924;50.828;6.440;2022-12-07T17:32:57;22.77;;;13.18;;
19554;SDS011;9924;50.828;6.440;2022-12-07T17:35:41;21.20;;;12.68;;
19554;SDS011;9924;50.828;6.440;2022-12-07T17:38:27;23.08;;;13.23;;
19554;SDS011;9924;50.828;6.440;2022-12-07T17:41:12;22.80;;;12.00;;
19554;SDS011;9924;50.828;6.440;2022-12-07T17:44:39;23.85;;;12.65;;
19554;SDS011;9924;50.828;6.440;2022-12-07T17:47:24;22.52;;;14.27;;
19554;SDS011;9924;50.828;6.440;2022-12-07T17:50:09;24.27;;;14.60;;
19554;SDS011;9924;50.828;6.440;2022-12-07T17:52:54;23.30;;;13.95;;
19554;SDS011;9924;50.828;6.440;2022-12-07T17:55:54;26.47;;;14.33;;
19554;SDS011;9924;50.828;6.440;2022-12-07T17:58:39;27.70;;;13.57;;
19554;SDS011;9924;50.828;6.440;2022-12-07T18:01:23;24.90;;;13.30;;
19554;SDS011;9924;50.828;6.440;2022-12-07T18:04:08;25.67;;;13.38;;